sensor_id;sensor_type;location;lat;lon;timestamp;temperature;humidity
41262;DHT22;29629;52.532;13.352;2024-01-15T00:00:00;3.10;99.90
41262;DHT22;29629;52.532;13.352;2024-01-15T00:02:29;2.90;99.90
41262;DHT22;29629;52.532;13.352;2024-01-15T00:04:56;3.00;99.90
41262;DHT22;29629;52.532;13.352;2024-01-15T00:07:23;2.90;99.90
41262;DHT22;29629;52.532;13.352;2024-01-15T00:09:50;2.90;99.90
41262;DHT22;29629;52.532;13.352;2024-01-15T00:12:16;2.80;99.90
41262;DHT22;29629;52.532;13.352;2024-01-15T00:14:43;2.90;99.90
41262;DHT22;29629;52.532;13.352;2024-01-15T00:17:12;2.90;99.90
41262;DHT22;29629;52.532;13.352;2024-01-15T00:19:39;2.90;99.90
41262;DHT22;29629;52.532;13.352;2024-01-15T00:22:06;2.80;99.90
41262;DHT22;29629;52.532;13.352;2024-01-15T00:24:33;3.00;99.90
41262;DHT22;29629;52.532;13.352;2024-01-15T00:27:00;2.90;99.90
41262;DHT22;29629;52.532;13.352;2024-01-15T00:29:27;2.90;99.90
41262;DHT22;29629;52.532;13.352;2024-01-15T00:31:53;2.90;99.90
41262;DHT22;29629;52.532;13.352;2024-01-15T00:34:22;3.00;99.90
41262;DHT22;29629;52.532;13.352;2024-01-15T00:36:49;2.70;99.90
41262;DHT22;29629;52.532;13.352;2024-01-15T00:39:15;2.90;99.90
41262;DHT22;29629;52.532;13.352;2024-01-15T00:41:43;2.80;99.90
41262;DHT22;29629;52.532;13.352;2024-01-15T00:44:10;2.90;99.90
41262;DHT22;29629;52.532;13.352;2024-01-15T00:46:42;2.90;99.90
41262;DHT22;29629;52.532;13.352;2024-01-15T00:49:10;2.90;99.90
41262;DHT22;29629;52.532;13.352;2024-01-15T00:51:38;2.90;99.90
41262;DHT22;29629;52.532;13.352;2024-01-15T00:54:05;2.90;99.90
41262;DHT22;29629;52.532;13.352;2024-01-15T00:56:32;2.90;99.90
41262;DHT22;29629;52.532;13.352;2024-01-15T00:59:00;2.90;99.90
41262;DHT22;29629;52.532;13.352;2024-01-15T01:01:27;2.90;99.90
41262;DHT22;29629;52.532;13.352;2024-01-15T01:03:54;2.90;99.90
41262;DHT22;29629;52.532;13.352;2024-01-15T01:06:21;2.90;99.90
41262;DHT22;29629;52.532;13.352;2024-01-15T01:08:49;2.90;99.90
41262;DHT22;29629;52.532;13.352;2024-01-15T01:11:16;2.80;99.90
41262;DHT22;29629;52.532;13.352;2024-01-15T01:13:43;2.70;99.90
41262;DHT22;29629;52.532;13.352;2024-01-15T01:16:10;2.60;99.90
41262;DHT22;29629;52.532;13.352;2024-01-15T01:18:37;2.70;99.90
41262;DHT22;29629;52.532;13.352;2024-01-15T01:21:04;2.60;99.90
41262;DHT22;29629;52.532;13.352;2024-01-15T01:23:31;2.60;99.90
41262;DHT22;29629;52.532;13.352;2024-01-15T01:25:59;2.60;99.90
41262;DHT22;29629;52.532;13.352;2024-01-15T01:28:27;2.50;99.90
41262;DHT22;29629;52.532;13.352;2024-01-15T01:30:54;2.60;99.90
41262;DHT22;29629;52.532;13.352;2024-01-15T01:33:21;2.50;99.90
41262;DHT22;29629;52.532;13.352;2024-01-15T01:35:48;2.80;99.90
41262;DHT22;29629;52.532;13.352;2024-01-15T01:38:15;2.70;99.90
41262;DHT22;29629;52.532;13.352;2024-01-15T01:40:41;2.50;99.90
41262;DHT22;29629;52.532;13.352;2024-01-15T01:43:10;2.50;99.90
41262;DHT22;29629;52.532;13.352;2024-01-15T01:45:37;2.40;99.90
41262;DHT22;29629;52.532;13.352;2024-01-15T01:48:05;2.30;99.90
41262;DHT22;29629;52.532;13.352;2024-01-15T01:50:32;2.20;99.90
41262;DHT22;29629;52.532;13.352;2024-01-15T01:52:59;2.20;99.90
41262;DHT22;29629;52.532;13.352;2024-01-15T01:55:27;2.20;99.90
41262;DHT22;29629;52.532;13.352;2024-01-15T01:57:56;2.20;99.90
41262;DHT22;29629;52.532;13.352;2024-01-15T02:00:24;2.20;99.90
41262;DHT22;29629;52.532;13.352;2024-01-15T02:02:51;2.30;99.90
41262;DHT22;29629;52.532;13.352;2024-01-15T02:05:19;2.30;99.90
41262;DHT22;29629;52.532;13.352;2024-01-15T02:07:47;2.40;99.90
41262;DHT22;29629;52.532;13.352;2024-01-15T02:10:14;2.40;99.90
41262;DHT22;29629;52.532;13.352;2024-01-15T02:12:42;2.40;99.90
41262;DHT22;29629;52.532;13.352;2024-01-15T02:15:09;2.40;99.90
41262;DHT22;29629;52.532;13.352;2024-01-15T02:17:57;2.40;99.90
41262;DHT22;29629;52.532;13.352;2024-01-15T02:20:24;2.40;99.90
41262;DHT22;29629;52.532;13.352;2024-01-15T02:22:51;2.40;99.90
41262;DHT22;29629;52.532;13.352;2024-01-15T02:25:20;2.40;99.90
41262;DHT22;29629;52.532;13.352;2024-01-15T02:27:47;2.40;99.90
41262;DHT22;29629;52.532;13.352;2024-01-15T02:30:14;2.40;99.90
41262;DHT22;29629;52.532;13.352;2024-01-15T02:32:42;2.50;99.90
41262;DHT22;29629;52.532;13.352;2024-01-15T02:35:09;2.50;99.90
41262;DHT22;29629;52.532;13.352;2024-01-15T02:37:36;2.50;99.90
41262;DHT22;29629;52.532;13.352;2024-01-15T02:40:03;2.50;99.90
41262;DHT22;29629;52.532;13.352;2024-01-15T02:42:31;2.50;99.90
41262;DHT22;29629;52.532;13.352;2024-01-15T02:44:58;2.50;99.90
41262;DHT22;29629;52.532;13.352;2024-01-15T02:47:25;2.50;99.90
41262;DHT22;29629;52.532;13.352;2024-01-15T02:49:52;2.50;99.90
41262;DHT22;29629;52.532;13.352;2024-01-15T02:52:19;2.40;99.90
41262;DHT22;29629;52.532;13.352;2024-01-15T02:54:46;2.40;99.90
41262;DHT22;29629;52.532;13.352;2024-01-15T02:57:13;2.40;99.90
41262;DHT22;29629;52.532;13.352;2024-01-15T02:59:41;2.50;99.90
41262;DHT22;29629;52.532;13.352;2024-01-15T03:02:08;2.50;99.90
41262;DHT22;29629;52.532;13.352;2024-01-15T03:04:35;2.50;99.90
41262;DHT22;29629;52.532;13.352;2024-01-15T03:07:02;2.50;99.90
41262;DHT22;29629;52.532;13.352;2024-01-15T03:09:29;2.50;99.90
41262;DHT22;29629;52.532;13.352;2024-01-15T03:11:56;2.50;99.90
41262;DHT22;29629;52.532;13.352;2024-01-15T03:14:23;2.60;99.90
41262;DHT22;29629;52.532;13.352;2024-01-15T03:16:53;2.60;99.90
41262;DHT22;29629;52.532;13.352;2024-01-15T03:19:21;2.60;99.90
41262;DHT22;29629;52.532;13.352;2024-01-15T03:21:48;2.60;99.90
41262;DHT22;29629;52.532;13.352;2024-01-15T03:24:15;2.60;99.90
41262;DHT22;29629;52.532;13.352;2024-01-15T03:26:42;2.60;99.90
41262;DHT22;29629;52.532;13.352;2024-01-15T03:29:09;2.60;99.90
41262;DHT22;29629;52.532;13.352;2024-01-15T03:31:36;2.60;99.90
41262;DHT22;29629;52.532;13.352;2024-01-15T03:34:04;2.50;99.90
41262;DHT22;29629;52.532;13.352;2024-01-15T03:36:30;2.60;99.90
41262;DHT22;29629;52.532;13.352;2024-01-15T03:38:57;2.60;99.90
41262;DHT22;29629;52.532;13.352;2024-01-15T03:41:23;2.60;99.90
41262;DHT22;29629;52.532;13.352;2024-01-15T03:43:50;2.60;99.90
41262;DHT22;29629;52.532;13.352;2024-01-15T03:46:17;2.70;99.90
41262;DHT22;29629;52.532;13.352;2024-01-15T03:48:44;2.50;99.90
41262;DHT22;29629;52.532;13.352;2024-01-15T03:51:15;2.60;99.90
41262;DHT22;29629;52.532;13.352;2024-01-15T03:53:42;2.60;99.90
41262;DHT22;29629;52.532;13.352;2024-01-15T03:56:09;2.60;99.90
41262;DHT22;29629;52.532;13.352;2024-01-15T03:58:35;2.60;99.90
41262;DHT22;29629;52.532;13.352;2024-01-15T04:01:03;2.60;99.90
41262;DHT22;29629;52.532;13.352;2024-01-15T04:03:30;2.60;99.90
41262;DHT22;29629;52.532;13.352;2024-01-15T04:05:57;2.70;99.90
41262;DHT22;29629;52.532;13.352;2024-01-15T04:08:25;2.60;99.90
41262;DHT22;29629;52.532;13.352;2024-01-15T04:10:52;2.60;99.90
41262;DHT22;29629;52.532;13.352;2024-01-15T04:13:19;2.60;99.90
41262;DHT22;29629;52.532;13.352;2024-01-15T04:15:46;2.60;99.90
41262;DHT22;29629;52.532;13.352;2024-01-15T04:18:13;2.60;99.90
41262;DHT22;29629;52.532;13.352;2024-01-15T04:20:40;2.60;99.90
41262;DHT22;29629;52.532;13.352;2024-01-15T04:23:06;2.60;99.90
41262;DHT22;29629;52.532;13.352;2024-01-15T04:25:35;2.60;99.90
41262;DHT22;29629;52.532;13.352;2024-01-15T04:28:02;2.60;99.90
41262;DHT22;29629;52.532;13.352;2024-01-15T04:30:29;2.70;99.90
41262;DHT22;29629;52.532;13.352;2024-01-15T04:32:56;2.70;99.90
41262;DHT22;29629;52.532;13.352;2024-01-15T04:35:23;2.70;99.90
41262;DHT22;29629;52.532;13.352;2024-01-15T04:37:49;2.70;99.90
41262;DHT22;29629;52.532;13.352;2024-01-15T04:40:16;2.70;99.90
41262;DHT22;29629;52.532;13.352;2024-01-15T04:42:45;2.70;99.90
41262;DHT22;29629;52.532;13.352;2024-01-15T04:45:12;2.70;99.90
41262;DHT22;29629;52.532;13.352;2024-01-15T04:47:39;2.70;99.90
41262;DHT22;29629;52.532;13.352;2024-01-15T04:50:07;2.70;99.90
41262;DHT22;29629;52.532;13.352;2024-01-15T04:52:34;2.70;99.90
41262;DHT22;29629;52.532;13.352;2024-01-15T04:55:01;2.70;99.90
41262;DHT22;29629;52.532;13.352;2024-01-15T04:57:27;2.70;99.90
41262;DHT22;29629;52.532;13.352;2024-01-15T04:59:56;2.70;99.90
41262;DHT22;29629;52.532;13.352;2024-01-15T05:02:23;2.70;99.90
41262;DHT22;29629;52.532;13.352;2024-01-15T05:04:50;2.70;99.90
41262;DHT22;29629;52.532;13.352;2024-01-15T05:07:16;2.70;99.90
41262;DHT22;29629;52.532;13.352;2024-01-15T05:09:43;2.70;99.90
41262;DHT22;29629;52.532;13.352;2024-01-15T05:12:10;2.70;99.90
41262;DHT22;29629;52.532;13.352;2024-01-15T05:14:38;2.80;99.90
41262;DHT22;29629;52.532;13.352;2024-01-15T05:17:06;2.70;99.90
41262;DHT22;29629;52.532;13.352;2024-01-15T05:19:33;2.80;99.90
41262;DHT22;29629;52.532;13.352;2024-01-15T05:22:00;2.80;99.90
41262;DHT22;29629;52.532;13.352;2024-01-15T05:24:27;2.80;99.90
41262;DHT22;29629;52.532;13.352;2024-01-15T05:26:54;2.80;99.90
41262;DHT22;29629;52.532;13.352;2024-01-15T05:29:21;2.80;99.90
41262;DHT22;29629;52.532;13.352;2024-01-15T05:31:47;2.80;99.90
41262;DHT22;29629;52.532;13.352;2024-01-15T05:34:16;2.80;99.90
41262;DHT22;29629;52.532;13.352;2024-01-15T05:36:43;2.90;99.90
41262;DHT22;29629;52.532;13.352;2024-01-15T05:39:12;2.70;99.90
41262;DHT22;29629;52.532;13.352;2024-01-15T05:41:39;2.80;99.90
41262;DHT22;29629;52.532;13.352;2024-01-15T05:44:06;2.90;99.90
41262;DHT22;29629;52.532;13.352;2024-01-15T05:46:33;2.90;99.90
41262;DHT22;29629;52.532;13.352;2024-01-15T05:48:59;3.00;99.90
41262;DHT22;29629;52.532;13.352;2024-01-15T05:51:28;2.90;99.90
41262;DHT22;29629;52.532;13.352;2024-01-15T05:53:55;2.90;99.90
41262;DHT22;29629;52.532;13.352;2024-01-15T05:56:22;2.90;99.90
41262;DHT22;29629;52.532;13.352;2024-01-15T05:58:49;2.80;99.90
41262;DHT22;29629;52.532;13.352;2024-01-15T06:01:16;2.80;99.90
41262;DHT22;29629;52.532;13.352;2024-01-15T06:03:43;2.70;99.90
41262;DHT22;29629;52.532;13.352;2024-01-15T06:06:10;2.70;99.90
41262;DHT22;29629;52.532;13.352;2024-01-15T06:08:39;2.80;99.90
41262;DHT22;29629;52.532;13.352;2024-01-15T06:11:06;2.80;99.90
41262;DHT22;29629;52.532;13.352;2024-01-15T06:13:34;2.80;99.90
41262;DHT22;29629;52.532;13.352;2024-01-15T06:16:01;2.80;99.90
41262;DHT22;29629;52.532;13.352;2024-01-15T06:18:28;2.80;99.90
41262;DHT22;29629;52.532;13.352;2024-01-15T06:20:55;2.80;99.90
41262;DHT22;29629;52.532;13.352;2024-01-15T06:23:21;2.80;99.90
41262;DHT22;29629;52.532;13.352;2024-01-15T06:25:50;2.80;99.90
41262;DHT22;29629;52.532;13.352;2024-01-15T06:28:17;2.90;99.90
41262;DHT22;29629;52.532;13.352;2024-01-15T06:30:44;2.90;99.90
41262;DHT22;29629;52.532;13.352;2024-01-15T06:33:11;2.90;99.90
41262;DHT22;29629;52.532;13.352;2024-01-15T06:35:38;2.90;99.90
41262;DHT22;29629;52.532;13.352;2024-01-15T06:38:05;2.90;99.90
41262;DHT22;29629;52.532;13.352;2024-01-15T06:40:32;2.90;99.90
41262;DHT22;29629;52.532;13.352;2024-01-15T06:43:00;2.90;99.90
41262;DHT22;29629;52.532;13.352;2024-01-15T06:45:27;2.90;99.90
41262;DHT22;29629;52.532;13.352;2024-01-15T06:47:54;2.90;99.90
41262;DHT22;29629;52.532;13.352;2024-01-15T06:50:21;2.90;99.90
41262;DHT22;29629;52.532;13.352;2024-01-15T06:52:48;2.90;99.90
41262;DHT22;29629;52.532;13.352;2024-01-15T06:55:15;2.90;99.90
41262;DHT22;29629;52.532;13.352;2024-01-15T06:57:42;2.90;99.90
41262;DHT22;29629;52.532;13.352;2024-01-15T07:00:11;3.00;99.90
41262;DHT22;29629;52.532;13.352;2024-01-15T07:02:38;2.90;99.90
41262;DHT22;29629;52.532;13.352;2024-01-15T07:05:05;3.00;99.90
41262;DHT22;29629;52.532;13.352;2024-01-15T07:07:32;3.00;99.90
41262;DHT22;29629;52.532;13.352;2024-01-15T07:09:59;3.00;99.90
41262;DHT22;29629;52.532;13.352;2024-01-15T07:12:26;3.00;99.90
41262;DHT22;29629;52.532;13.352;2024-01-15T07:14:54;3.10;99.90
41262;DHT22;29629;52.532;13.352;2024-01-15T07:17:22;3.10;99.90
41262;DHT22;29629;52.532;13.352;2024-01-15T07:19:49;3.10;99.90
41262;DHT22;29629;52.532;13.352;2024-01-15T07:22:16;3.10;99.90
41262;DHT22;29629;52.532;13.352;2024-01-15T07:24:43;3.10;99.90
41262;DHT22;29629;52.532;13.352;2024-01-15T07:27:11;3.10;99.90
41262;DHT22;29629;52.532;13.352;2024-01-15T07:29:38;3.20;99.90
41262;DHT22;29629;52.532;13.352;2024-01-15T07:32:05;3.10;99.90
41262;DHT22;29629;52.532;13.352;2024-01-15T07:34:34;3.10;99.90
41262;DHT22;29629;52.532;13.352;2024-01-15T07:37:01;3.20;99.90
41262;DHT22;29629;52.532;13.352;2024-01-15T07:39:28;3.20;99.90
41262;DHT22;29629;52.532;13.352;2024-01-15T07:41:56;3.20;99.90
41262;DHT22;29629;52.532;13.352;2024-01-15T07:44:26;3.20;99.90
41262;DHT22;29629;52.532;13.352;2024-01-15T07:46:53;3.20;99.90
41262;DHT22;29629;52.532;13.352;2024-01-15T07:49:20;3.20;99.90
41262;DHT22;29629;52.532;13.352;2024-01-15T07:51:50;3.20;99.90
41262;DHT22;29629;52.532;13.352;2024-01-15T07:54:17;3.20;99.90
41262;DHT22;29629;52.532;13.352;2024-01-15T07:56:54;3.20;99.90
41262;DHT22;29629;52.532;13.352;2024-01-15T07:59:21;3.20;99.90
41262;DHT22;29629;52.532;13.352;2024-01-15T08:01:48;3.10;99.90
41262;DHT22;29629;52.532;13.352;2024-01-15T08:04:15;3.20;99.90
41262;DHT22;29629;52.532;13.352;2024-01-15T08:06:42;3.20;99.90
41262;DHT22;29629;52.532;13.352;2024-01-15T08:09:10;3.20;99.90
41262;DHT22;29629;52.532;13.352;2024-01-15T08:11:39;3.20;99.90
41262;DHT22;29629;52.532;13.352;2024-01-15T08:14:08;3.20;99.90
41262;DHT22;29629;52.532;13.352;2024-01-15T08:16:35;3.20;99.90
41262;DHT22;29629;52.532;13.352;2024-01-15T08:19:02;3.20;99.90
41262;DHT22;29629;52.532;13.352;2024-01-15T08:21:29;3.20;99.90
41262;DHT22;29629;52.532;13.352;2024-01-15T08:23:57;3.20;99.90
41262;DHT22;29629;52.532;13.352;2024-01-15T08:26:25;3.20;99.90
41262;DHT22;29629;52.532;13.352;2024-01-15T08:28:52;3.20;99.90
41262;DHT22;29629;52.532;13.352;2024-01-15T08:31:19;3.20;99.90
41262;DHT22;29629;52.532;13.352;2024-01-15T08:33:46;3.20;99.90
41262;DHT22;29629;52.532;13.352;2024-01-15T08:36:13;3.30;99.90
41262;DHT22;29629;52.532;13.352;2024-01-15T08:38:40;3.20;99.90
41262;DHT22;29629;52.532;13.352;2024-01-15T08:41:07;3.20;99.90
41262;DHT22;29629;52.532;13.352;2024-01-15T08:43:36;3.30;99.90
41262;DHT22;29629;52.532;13.352;2024-01-15T08:46:03;3.20;99.90
41262;DHT22;29629;52.532;13.352;2024-01-15T08:48:30;3.20;99.90
41262;DHT22;29629;52.532;13.352;2024-01-15T08:50:57;3.30;99.90
41262;DHT22;29629;52.532;13.352;2024-01-15T08:53:24;3.20;99.90
41262;DHT22;29629;52.532;13.352;2024-01-15T08:55:51;3.30;99.90
41262;DHT22;29629;52.532;13.352;2024-01-15T08:58:18;3.30;99.90
41262;DHT22;29629;52.532;13.352;2024-01-15T09:00:46;3.30;99.90
41262;DHT22;29629;52.532;13.352;2024-01-15T09:03:13;3.30;99.90
41262;DHT22;29629;52.532;13.352;2024-01-15T09:05:40;3.20;99.90
41262;DHT22;29629;52.532;13.352;2024-01-15T09:08:08;3.40;99.90
41262;DHT22;29629;52.532;13.352;2024-01-15T09:10:35;3.30;99.90
41262;DHT22;29629;52.532;13.352;2024-01-15T09:13:02;3.30;99.90
41262;DHT22;29629;52.532;13.352;2024-01-15T09:15:33;3.40;99.90
41262;DHT22;29629;52.532;13.352;2024-01-15T09:18:01;3.30;99.90
41262;DHT22;29629;52.532;13.352;2024-01-15T09:20:28;3.30;99.90
41262;DHT22;29629;52.532;13.352;2024-01-15T09:22:55;3.30;99.90
41262;DHT22;29629;52.532;13.352;2024-01-15T09:25:23;3.40;99.90
41262;DHT22;29629;52.532;13.352;2024-01-15T09:27:50;3.40;99.90
41262;DHT22;29629;52.532;13.352;2024-01-15T09:30:17;3.40;99.90
41262;DHT22;29629;52.532;13.352;2024-01-15T09:32:44;3.40;99.90
41262;DHT22;29629;52.532;13.352;2024-01-15T09:35:12;3.50;99.90
41262;DHT22;29629;52.532;13.352;2024-01-15T09:37:39;3.50;99.90
41262;DHT22;29629;52.532;13.352;2024-01-15T09:40:08;3.60;99.90
41262;DHT22;29629;52.532;13.352;2024-01-15T09:42:39;3.60;99.90
41262;DHT22;29629;52.532;13.352;2024-01-15T09:45:06;3.70;99.90
41262;DHT22;29629;52.532;13.352;2024-01-15T09:47:34;3.70;99.90
41262;DHT22;29629;52.532;13.352;2024-01-15T09:50:01;3.70;99.90
41262;DHT22;29629;52.532;13.352;2024-01-15T09:52:30;3.70;99.90
41262;DHT22;29629;52.532;13.352;2024-01-15T09:54:58;3.60;99.90
41262;DHT22;29629;52.532;13.352;2024-01-15T09:57:26;3.60;99.90
41262;DHT22;29629;52.532;13.352;2024-01-15T09:59:53;3.60;99.90
41262;DHT22;29629;52.532;13.352;2024-01-15T10:02:21;3.60;99.90
41262;DHT22;29629;52.532;13.352;2024-01-15T10:04:48;3.60;99.90
41262;DHT22;29629;52.532;13.352;2024-01-15T10:07:16;3.70;99.90
41262;DHT22;29629;52.532;13.352;2024-01-15T10:09:46;3.70;99.90
41262;DHT22;29629;52.532;13.352;2024-01-15T10:12:13;3.70;99.90
41262;DHT22;29629;52.532;13.352;2024-01-15T10:14:41;3.60;99.90
41262;DHT22;29629;52.532;13.352;2024-01-15T10:17:12;3.60;99.90
41262;DHT22;29629;52.532;13.352;2024-01-15T10:19:40;3.70;99.90
41262;DHT22;29629;52.532;13.352;2024-01-15T10:22:08;3.60;99.90
41262;DHT22;29629;52.532;13.352;2024-01-15T10:24:36;3.60;99.90
41262;DHT22;29629;52.532;13.352;2024-01-15T10:27:08;3.70;99.90
41262;DHT22;29629;52.532;13.352;2024-01-15T10:29:35;3.80;99.90
41262;DHT22;29629;52.532;13.352;2024-01-15T10:32:03;3.80;99.90
41262;DHT22;29629;52.532;13.352;2024-01-15T10:34:33;3.90;99.90
41262;DHT22;29629;52.532;13.352;2024-01-15T10:37:01;3.90;99.90
41262;DHT22;29629;52.532;13.352;2024-01-15T10:39:28;3.90;99.90
41262;DHT22;29629;52.532;13.352;2024-01-15T10:41:56;3.80;99.90
41262;DHT22;29629;52.532;13.352;2024-01-15T10:44:25;3.80;99.90
41262;DHT22;29629;52.532;13.352;2024-01-15T10:46:52;3.90;99.90
41262;DHT22;29629;52.532;13.352;2024-01-15T10:49:20;3.90;99.90
41262;DHT22;29629;52.532;13.352;2024-01-15T10:51:50;3.80;99.90
41262;DHT22;29629;52.532;13.352;2024-01-15T10:54:19;3.80;99.90
41262;DHT22;29629;52.532;13.352;2024-01-15T10:56:47;3.80;99.90
41262;DHT22;29629;52.532;13.352;2024-01-15T10:59:14;3.80;99.90
41262;DHT22;29629;52.532;13.352;2024-01-15T11:01:43;3.90;99.90
41262;DHT22;29629;52.532;13.352;2024-01-15T11:04:12;3.90;99.90
41262;DHT22;29629;52.532;13.352;2024-01-15T11:06:44;4.10;99.90
41262;DHT22;29629;52.532;13.352;2024-01-15T11:09:12;4.20;99.90
41262;DHT22;29629;52.532;13.352;2024-01-15T11:11:41;4.10;99.90
41262;DHT22;29629;52.532;13.352;2024-01-15T11:14:09;4.00;99.90
41262;DHT22;29629;52.532;13.352;2024-01-15T11:16:55;4.00;99.90
41262;DHT22;29629;52.532;13.352;2024-01-15T11:19:24;4.00;99.90
41262;DHT22;29629;52.532;13.352;2024-01-15T11:21:51;4.00;99.90
41262;DHT22;29629;52.532;13.352;2024-01-15T11:24:35;3.90;99.90
41262;DHT22;29629;52.532;13.352;2024-01-15T11:27:03;3.80;99.90
41262;DHT22;29629;52.532;13.352;2024-01-15T11:29:31;3.80;99.90
41262;DHT22;29629;52.532;13.352;2024-01-15T11:32:02;3.70;99.90
41262;DHT22;29629;52.532;13.352;2024-01-15T11:34:50;3.70;99.90
41262;DHT22;29629;52.532;13.352;2024-01-15T11:37:18;3.70;99.90
41262;DHT22;29629;52.532;13.352;2024-01-15T11:39:46;3.70;99.90
41262;DHT22;29629;52.532;13.352;2024-01-15T11:42:14;3.80;99.90
41262;DHT22;29629;52.532;13.352;2024-01-15T11:44:40;3.70;99.90
41262;DHT22;29629;52.532;13.352;2024-01-15T11:47:10;3.70;99.90
41262;DHT22;29629;52.532;13.352;2024-01-15T11:49:59;3.50;99.90
41262;DHT22;29629;52.532;13.352;2024-01-15T11:52:32;3.40;99.90
41262;DHT22;29629;52.532;13.352;2024-01-15T11:55:06;3.00;99.90
41262;DHT22;29629;52.532;13.352;2024-01-15T11:57:41;2.90;99.90
41262;DHT22;29629;52.532;13.352;2024-01-15T12:00:11;2.80;99.90
41262;DHT22;29629;52.532;13.352;2024-01-15T12:02:41;2.90;99.90
41262;DHT22;29629;52.532;13.352;2024-01-15T12:05:08;2.90;99.90
41262;DHT22;29629;52.532;13.352;2024-01-15T12:07:35;3.00;99.90
41262;DHT22;29629;52.532;13.352;2024-01-15T12:10:08;3.00;99.90
41262;DHT22;29629;52.532;13.352;2024-01-15T12:12:44;3.10;99.90
41262;DHT22;29629;52.532;13.352;2024-01-15T12:15:14;3.10;99.90
41262;DHT22;29629;52.532;13.352;2024-01-15T12:17:43;3.10;99.90
41262;DHT22;29629;52.532;13.352;2024-01-15T12:20:11;3.20;99.90
41262;DHT22;29629;52.532;13.352;2024-01-15T12:22:38;3.20;99.90
41262;DHT22;29629;52.532;13.352;2024-01-15T12:25:05;3.10;99.90
41262;DHT22;29629;52.532;13.352;2024-01-15T12:27:33;3.10;99.90
41262;DHT22;29629;52.532;13.352;2024-01-15T12:30:00;3.20;99.90
41262;DHT22;29629;52.532;13.352;2024-01-15T12:32:27;3.20;99.90
41262;DHT22;29629;52.532;13.352;2024-01-15T12:35:00;3.10;99.90
41262;DHT22;29629;52.532;13.352;2024-01-15T12:37:27;3.10;99.90
41262;DHT22;29629;52.532;13.352;2024-01-15T12:39:55;3.10;99.90
41262;DHT22;29629;52.532;13.352;2024-01-15T12:42:22;3.00;99.90
41262;DHT22;29629;52.532;13.352;2024-01-15T12:44:49;3.00;99.90
41262;DHT22;29629;52.532;13.352;2024-01-15T12:47:17;3.00;99.90
41262;DHT22;29629;52.532;13.352;2024-01-15T12:49:46;2.90;99.90
41262;DHT22;29629;52.532;13.352;2024-01-15T12:52:19;2.80;99.90
41262;DHT22;29629;52.532;13.352;2024-01-15T12:54:51;2.90;99.90
41262;DHT22;29629;52.532;13.352;2024-01-15T12:57:18;2.90;99.90
41262;DHT22;29629;52.532;13.352;2024-01-15T12:59:45;2.90;99.90
41262;DHT22;29629;52.532;13.352;2024-01-15T13:02:13;3.00;99.90
41262;DHT22;29629;52.532;13.352;2024-01-15T13:04:40;3.10;99.90
41262;DHT22;29629;52.532;13.352;2024-01-15T13:07:07;3.00;99.90
41262;DHT22;29629;52.532;13.352;2024-01-15T13:09:35;3.00;99.90
41262;DHT22;29629;52.532;13.352;2024-01-15T13:12:02;2.90;99.90
41262;DHT22;29629;52.532;13.352;2024-01-15T13:14:29;3.00;99.90
41262;DHT22;29629;52.532;13.352;2024-01-15T13:16:57;3.00;99.90
41262;DHT22;29629;52.532;13.352;2024-01-15T13:19:25;3.00;99.90
41262;DHT22;29629;52.532;13.352;2024-01-15T13:21:53;3.00;99.90
41262;DHT22;29629;52.532;13.352;2024-01-15T13:24:20;3.00;99.90
41262;DHT22;29629;52.532;13.352;2024-01-15T13:26:48;3.00;99.90
41262;DHT22;29629;52.532;13.352;2024-01-15T13:29:15;3.10;99.90
41262;DHT22;29629;52.532;13.352;2024-01-15T13:31:42;3.10;99.90
41262;DHT22;29629;52.532;13.352;2024-01-15T13:34:12;3.00;99.90
41262;DHT22;29629;52.532;13.352;2024-01-15T13:36:40;3.10;99.90
41262;DHT22;29629;52.532;13.352;2024-01-15T13:39:07;3.20;99.90
41262;DHT22;29629;52.532;13.352;2024-01-15T13:41:35;3.10;99.90
41262;DHT22;29629;52.532;13.352;2024-01-15T13:44:03;3.00;99.90
41262;DHT22;29629;52.532;13.352;2024-01-15T13:46:30;3.00;99.90
41262;DHT22;29629;52.532;13.352;2024-01-15T13:48:57;3.00;99.90
41262;DHT22;29629;52.532;13.352;2024-01-15T13:51:24;3.00;99.90
41262;DHT22;29629;52.532;13.352;2024-01-15T13:53:51;3.00;99.90
41262;DHT22;29629;52.532;13.352;2024-01-15T13:56:18;3.00;99.90
41262;DHT22;29629;52.532;13.352;2024-01-15T13:58:46;3.00;99.90
41262;DHT22;29629;52.532;13.352;2024-01-15T14:01:15;3.10;99.90
41262;DHT22;29629;52.532;13.352;2024-01-15T14:03:43;3.10;99.90
41262;DHT22;29629;52.532;13.352;2024-01-15T14:06:10;3.10;99.90
41262;DHT22;29629;52.532;13.352;2024-01-15T14:08:37;3.10;99.90
41262;DHT22;29629;52.532;13.352;2024-01-15T14:11:04;3.20;99.90
41262;DHT22;29629;52.532;13.352;2024-01-15T14:13:32;3.10;99.90
41262;DHT22;29629;52.532;13.352;2024-01-15T14:15:59;3.00;99.90
41262;DHT22;29629;52.532;13.352;2024-01-15T14:18:28;3.20;99.90
41262;DHT22;29629;52.532;13.352;2024-01-15T14:20:55;3.10;99.90
41262;DHT22;29629;52.532;13.352;2024-01-15T14:23:22;3.10;99.90
41262;DHT22;29629;52.532;13.352;2024-01-15T14:25:49;3.10;99.90
41262;DHT22;29629;52.532;13.352;2024-01-15T14:28:16;3.20;99.90
41262;DHT22;29629;52.532;13.352;2024-01-15T14:30:43;3.20;99.90
41262;DHT22;29629;52.532;13.352;2024-01-15T14:33:10;3.20;99.90
41262;DHT22;29629;52.532;13.352;2024-01-15T14:35:38;3.20;99.90
41262;DHT22;29629;52.532;13.352;2024-01-15T14:38:05;3.10;99.90
41262;DHT22;29629;52.532;13.352;2024-01-15T14:40:34;3.10;99.90
41262;DHT22;29629;52.532;13.352;2024-01-15T14:43:02;3.10;99.90
41262;DHT22;29629;52.532;13.352;2024-01-15T14:45:29;3.10;99.90
41262;DHT22;29629;52.532;13.352;2024-01-15T14:47:56;3.00;99.90
41262;DHT22;29629;52.532;13.352;2024-01-15T14:50:23;3.00;99.90
41262;DHT22;29629;52.532;13.352;2024-01-15T14:52:52;3.10;99.90
41262;DHT22;29629;52.532;13.352;2024-01-15T14:55:19;3.00;99.90
41262;DHT22;29629;52.532;13.352;2024-01-15T14:57:48;3.10;99.90
41262;DHT22;29629;52.532;13.352;2024-01-15T15:00:16;3.00;99.90
41262;DHT22;29629;52.532;13.352;2024-01-15T15:02:43;3.00;99.90
41262;DHT22;29629;52.532;13.352;2024-01-15T15:05:10;3.00;99.90
41262;DHT22;29629;52.532;13.352;2024-01-15T15:07:39;3.00;99.90
41262;DHT22;29629;52.532;13.352;2024-01-15T15:10:08;3.00;99.90
41262;DHT22;29629;52.532;13.352;2024-01-15T15:12:36;2.90;99.90
41262;DHT22;29629;52.532;13.352;2024-01-15T15:15:04;2.90;99.90
41262;DHT22;29629;52.532;13.352;2024-01-15T15:17:32;2.90;99.90
41262;DHT22;29629;52.532;13.352;2024-01-15T15:20:00;3.00;99.90
41262;DHT22;29629;52.532;13.352;2024-01-15T15:22:28;3.00;99.90
41262;DHT22;29629;52.532;13.352;2024-01-15T15:24:55;3.00;99.90
41262;DHT22;29629;52.532;13.352;2024-01-15T15:27:23;3.00;99.90
41262;DHT22;29629;52.532;13.352;2024-01-15T15:29:52;2.90;99.90
41262;DHT22;29629;52.532;13.352;2024-01-15T15:32:19;2.90;99.90